PWSweather.com
Personal Weather Stations
Station Observations
SHAHALMS1
Eftra, Falkenberg, HA

EftraFalkenberg, HA

Lat: 56.85, Lon: 12.65

Elevation: 140

Station Type:

http://hem.passagen.se/risarp101

High Low Average
Temperature 75.9°F24.4°C 56.5°F13.6°C 65.6°F18.7°C
Dew Point 62.0°F16.7°C 51.8°F11.0°C 55.7°F13.2°C
Winds 7.1 mph 11.4 kmh Calm Calm 3.0 mph SE4.8 kmh SE
Wind Gusts 17.5 mph28.2 kmh -- 7.0 mph11.3 kmh
Humidity 95% 45% 72%
Pressure 30.15 in1021.0 mb 30.04 in1017.3 mb -
Precipitation 0.05 in1.3 mm - -
Hour Temp Dew Point Humidity Winds Wind Gusts Pressure Precip Precip Rate Daily Precip Total
12:00 AM 56.5°F13.6°C 52.0°F11.1°C 85% 0.4 mph S0.6 kmh S 3.9 mph6.3 kmh 30.04 in1017.3 mb 0.00 in0.0 mm 0.00 in0.0 mm 0.00 in0.0 mm
12:10 AM 57.0°F13.9°C 52.9°F11.6°C 86% 0.3 mph S0.5 kmh S 3.6 mph5.8 kmh 30.04 in1017.3 mb 0.00 in0.0 mm 0.00 in0.0 mm 0.00 in0.0 mm
12:20 AM 57.4°F14.1°C 53.2°F11.8°C 86% Calm Calm -- 30.07 in1018.3 mb 0.00 in0.0 mm 0.00 in0.0 mm 0.00 in0.0 mm
12:30 AM 57.6°F14.2°C 53.4°F11.9°C 86% 0.2 mph S0.3 kmh S 2.5 mph4.0 kmh 30.07 in1018.3 mb 0.00 in0.0 mm 0.00 in0.0 mm 0.00 in0.0 mm
12:40 AM 58.1°F14.5°C 54.2°F12.3°C 87% 2.0 mph S3.2 kmh S 5.4 mph8.7 kmh 30.07 in1018.3 mb 0.00 in0.0 mm 0.00 in0.0 mm 0.00 in0.0 mm
12:50 AM 59.0°F15.0°C 55.1°F12.8°C 87% 2.8 mph S4.5 kmh S 9.7 mph15.6 kmh 30.09 in1019.0 mb 0.00 in0.0 mm 0.00 in0.0 mm 0.00 in0.0 mm
01:00 AM 59.9°F15.5°C 55.7°F13.2°C 86% 4.8 mph S7.7 kmh S 10.4 mph16.7 kmh 30.04 in1017.3 mb 0.00 in0.0 mm 0.00 in0.0 mm 0.00 in0.0 mm
01:10 AM 60.1°F15.6°C 55.6°F13.1°C 85% 4.5 mph S7.2 kmh S 12.9 mph20.8 kmh 30.04 in1017.3 mb 0.00 in0.0 mm 0.00 in0.0 mm 0.00 in0.0 mm
01:20 AM 60.1°F15.6°C 55.2°F12.9°C 84% 4.4 mph S7.1 kmh S 9.7 mph15.6 kmh 30.07 in1018.3 mb 0.00 in0.0 mm 0.00 in0.0 mm 0.00 in0.0 mm
01:30 AM 59.7°F15.4°C 54.2°F12.3°C 82% 3.1 mph S5.0 kmh S 11.5 mph18.5 kmh 30.04 in1017.3 mb 0.00 in0.0 mm 0.00 in0.0 mm 0.00 in0.0 mm
01:40 AM 59.5°F15.3°C 54.0°F12.2°C 82% 2.4 mph SSE3.9 kmh SSE 8.9 mph14.3 kmh 30.04 in1017.3 mb 0.00 in0.0 mm 0.00 in0.0 mm 0.00 in0.0 mm
01:50 AM 59.0°F15.0°C 53.8°F12.1°C 83% 3.2 mph SE5.1 kmh SE 10.7 mph17.2 kmh 30.07 in1018.3 mb 0.00 in0.0 mm 0.00 in0.0 mm 0.00 in0.0 mm
02:00 AM 58.5°F14.7°C 53.3°F11.8°C 83% 1.8 mph ESE2.9 kmh ESE 9.3 mph15.0 kmh 30.07 in1018.3 mb 0.00 in0.0 mm 0.00 in0.0 mm 0.00 in0.0 mm
02:10 AM 58.1°F14.5°C 53.3°F11.8°C 84% 1.9 mph E3.1 kmh E 7.9 mph12.7 kmh 30.07 in1018.3 mb 0.00 in0.0 mm 0.00 in0.0 mm 0.00 in0.0 mm
02:20 AM 57.7°F14.3°C 53.6°F12.0°C 86% 0.2 mph E0.3 kmh E 4.3 mph6.9 kmh 30.07 in1018.3 mb 0.00 in0.0 mm 0.00 in0.0 mm 0.00 in0.0 mm
02:30 AM 57.6°F14.2°C 53.4°F11.9°C 86% 1.1 mph E1.8 kmh E 7.5 mph12.1 kmh 30.07 in1018.3 mb 0.00 in0.0 mm 0.00 in0.0 mm 0.00 in0.0 mm
02:40 AM 57.2°F14.0°C 53.4°F11.9°C 87% 2.2 mph E3.5 kmh E 6.4 mph10.3 kmh 30.07 in1018.3 mb 0.05 in1.3 mm 0.30 in7.6 mm 0.05 in1.3 mm
02:50 AM 57.0°F13.9°C 53.5°F11.9°C 88% 2.7 mph E4.3 kmh E 6.8 mph10.9 kmh 30.07 in1018.3 mb 0.05 in1.3 mm 0.00 in0.0 mm 0.05 in1.3 mm
03:00 AM 56.8°F13.8°C 53.6°F12.0°C 89% 0.9 mph E1.4 kmh E 5.0 mph8.0 kmh 30.07 in1018.3 mb 0.05 in1.3 mm 0.00 in0.0 mm 0.05 in1.3 mm
03:10 AM 56.7°F13.7°C 53.5°F11.9°C 89% 2.9 mph E4.7 kmh E 8.9 mph14.3 kmh 30.07 in1018.3 mb 0.05 in1.3 mm 0.00 in0.0 mm 0.05 in1.3 mm
03:20 AM 56.5°F13.6°C 53.3°F11.8°C 89% 1.1 mph E1.8 kmh E 6.1 mph9.8 kmh 30.07 in1018.3 mb 0.05 in1.3 mm 0.00 in0.0 mm 0.05 in1.3 mm
03:30 AM 56.5°F13.6°C 53.6°F12.0°C 90% 0.6 mph ESE1.0 kmh ESE 6.4 mph10.3 kmh 30.07 in1018.3 mb 0.05 in1.3 mm 0.00 in0.0 mm 0.05 in1.3 mm
03:40 AM 56.5°F13.6°C 53.6°F12.0°C 90% 0.4 mph E0.6 kmh E 6.1 mph9.8 kmh 30.07 in1018.3 mb 0.00 in0.0 mm 0.00 in0.0 mm 0.05 in1.3 mm
03:50 AM 56.5°F13.6°C 53.9°F12.2°C 91% 0.7 mph SE1.1 kmh SE 4.7 mph7.6 kmh 30.07 in1018.3 mb 0.00 in0.0 mm 0.00 in0.0 mm 0.05 in1.3 mm
04:00 AM 56.5°F13.6°C 53.9°F12.2°C 91% 1.6 mph SE2.6 kmh SE 7.9 mph12.7 kmh 30.07 in1018.3 mb 0.00 in0.0 mm 0.00 in0.0 mm 0.05 in1.3 mm
04:10 AM 56.7°F13.7°C 54.4°F12.4°C 92% 1.9 mph S3.1 kmh S 6.1 mph9.8 kmh 30.07 in1018.3 mb 0.00 in0.0 mm 0.00 in0.0 mm 0.05 in1.3 mm
04:20 AM 56.7°F13.7°C 54.4°F12.4°C 92% 2.1 mph SE3.4 kmh SE 8.6 mph13.8 kmh 30.07 in1018.3 mb 0.00 in0.0 mm 0.00 in0.0 mm 0.05 in1.3 mm
04:30 AM 56.8°F13.8°C 54.5°F12.5°C 92% 2.9 mph SE4.7 kmh SE 8.6 mph13.8 kmh 30.07 in1018.3 mb 0.00 in0.0 mm 0.00 in0.0 mm 0.05 in1.3 mm
04:40 AM 57.0°F13.9°C 54.7°F12.6°C 92% 1.8 mph ESE2.9 kmh ESE 6.4 mph10.3 kmh 30.07 in1018.3 mb 0.00 in0.0 mm 0.00 in0.0 mm 0.05 in1.3 mm
04:50 AM 57.0°F13.9°C 54.7°F12.6°C 92% 1.8 mph SE2.9 kmh SE 7.9 mph12.7 kmh 30.07 in1018.3 mb 0.00 in0.0 mm 0.00 in0.0 mm 0.05 in1.3 mm
05:00 AM 56.8°F13.8°C 54.5°F12.5°C 92% 0.8 mph ESE1.3 kmh ESE 6.8 mph10.9 kmh 30.07 in1018.3 mb 0.00 in0.0 mm 0.00 in0.0 mm 0.05 in1.3 mm
05:10 AM 56.8°F13.8°C 54.5°F12.5°C 92% 0.5 mph E0.8 kmh E 4.3 mph6.9 kmh 30.07 in1018.3 mb 0.00 in0.0 mm 0.00 in0.0 mm 0.05 in1.3 mm
05:20 AM 57.0°F13.9°C 54.7°F12.6°C 92% 0.6 mph ESE1.0 kmh ESE 6.4 mph10.3 kmh 30.07 in1018.3 mb 0.00 in0.0 mm 0.00 in0.0 mm 0.05 in1.3 mm
05:30 AM 57.0°F13.9°C 54.7°F12.6°C 92% 2.6 mph E4.2 kmh E 8.6 mph13.8 kmh 30.07 in1018.3 mb 0.00 in0.0 mm 0.00 in0.0 mm 0.05 in1.3 mm
05:40 AM 57.2°F14.0°C 55.2°F12.9°C 93% 2.9 mph ESE4.7 kmh ESE 7.5 mph12.1 kmh 30.07 in1018.3 mb 0.00 in0.0 mm 0.00 in0.0 mm 0.05 in1.3 mm
05:50 AM 57.6°F14.2°C 55.6°F13.1°C 93% 1.9 mph ESE3.1 kmh ESE 6.8 mph10.9 kmh 30.04 in1017.3 mb 0.00 in0.0 mm 0.00 in0.0 mm 0.05 in1.3 mm
06:00 AM 58.3°F14.6°C 56.6°F13.7°C 94% 0.4 mph SE0.6 kmh SE 4.7 mph7.6 kmh 30.07 in1018.3 mb 0.00 in0.0 mm 0.00 in0.0 mm 0.05 in1.3 mm
06:10 AM 59.0°F15.0°C 57.3°F14.1°C 94% 3.9 mph E6.3 kmh E 8.9 mph14.3 kmh 30.07 in1018.3 mb 0.00 in0.0 mm 0.00 in0.0 mm 0.05 in1.3 mm
06:20 AM 59.0°F15.0°C 57.3°F14.1°C 94% 4.2 mph ESE6.8 kmh ESE 10.4 mph16.7 kmh 30.04 in1017.3 mb 0.00 in0.0 mm 0.00 in0.0 mm 0.05 in1.3 mm
06:30 AM 59.0°F15.0°C 57.3°F14.1°C 94% 3.7 mph ESE6.0 kmh ESE 10.4 mph16.7 kmh 30.07 in1018.3 mb 0.00 in0.0 mm 0.00 in0.0 mm 0.05 in1.3 mm
06:40 AM 59.4°F15.2°C 57.6°F14.2°C 94% 6.7 mph ESE10.8 kmh ESE 12.5 mph20.1 kmh 30.07 in1018.3 mb 0.00 in0.0 mm 0.00 in0.0 mm 0.05 in1.3 mm
06:50 AM 59.2°F15.1°C 57.2°F14.0°C 93% 6.5 mph ESE10.5 kmh ESE 12.5 mph20.1 kmh 30.07 in1018.3 mb 0.00 in0.0 mm 0.00 in0.0 mm 0.05 in1.3 mm
07:00 AM 59.4°F15.2°C 57.3°F14.1°C 93% 6.2 mph E10.0 kmh E 12.2 mph19.6 kmh 30.07 in1018.3 mb 0.00 in0.0 mm 0.00 in0.0 mm 0.05 in1.3 mm
07:10 AM 60.3°F15.7°C 58.5°F14.7°C 94% 5.1 mph E8.2 kmh E 10.0 mph16.1 kmh 30.07 in1018.3 mb 0.00 in0.0 mm 0.00 in0.0 mm 0.05 in1.3 mm
07:20 AM 61.2°F16.2°C 59.7°F15.4°C 95% 4.8 mph E7.7 kmh E 10.4 mph16.7 kmh 30.07 in1018.3 mb 0.00 in0.0 mm 0.00 in0.0 mm 0.05 in1.3 mm
07:30 AM 62.2°F16.8°C 60.8°F16.0°C 95% 5.6 mph E9.0 kmh E 9.7 mph15.6 kmh 30.09 in1019.0 mb 0.00 in0.0 mm 0.00 in0.0 mm 0.05 in1.3 mm
07:40 AM 63.7°F17.6°C 61.0°F16.1°C 91% 6.5 mph ESE10.5 kmh ESE 12.2 mph19.6 kmh 30.09 in1019.0 mb 0.00 in0.0 mm 0.00 in0.0 mm 0.05 in1.3 mm
07:50 AM 65.3°F18.5°C 62.0°F16.7°C 89% 4.5 mph SE7.2 kmh SE 12.9 mph20.8 kmh 30.09 in1019.0 mb 0.00 in0.0 mm 0.00 in0.0 mm 0.05 in1.3 mm
08:00 AM 66.7°F19.3°C 61.4°F16.3°C 83% 4.5 mph SE7.2 kmh SE 15.4 mph24.8 kmh 30.09 in1019.0 mb 0.00 in0.0 mm 0.00 in0.0 mm 0.05 in1.3 mm
08:10 AM 67.5°F19.7°C 58.5°F14.7°C 73% 3.9 mph SSW6.3 kmh SSW 12.5 mph20.1 kmh 30.09 in1019.0 mb 0.00 in0.0 mm 0.00 in0.0 mm 0.05 in1.3 mm
08:20 AM 67.8°F19.9°C 58.5°F14.7°C 72% 6.0 mph S9.7 kmh S 12.5 mph20.1 kmh 30.12 in1020.0 mb 0.00 in0.0 mm 0.00 in0.0 mm 0.05 in1.3 mm
08:30 AM 68.9°F20.5°C 59.1°F15.1°C 71% 4.1 mph S6.6 kmh S 9.7 mph15.6 kmh 30.12 in1020.0 mb 0.00 in0.0 mm 0.00 in0.0 mm 0.05 in1.3 mm
08:40 AM 69.1°F20.6°C 56.8°F13.8°C 65% 6.2 mph SSE10.0 kmh SSE 12.9 mph20.8 kmh 30.12 in1020.0 mb 0.00 in0.0 mm 0.00 in0.0 mm 0.05 in1.3 mm
08:50 AM 68.7°F20.4°C 56.5°F13.6°C 65% 5.9 mph S9.5 kmh S 15.7 mph25.3 kmh 30.12 in1020.0 mb 0.00 in0.0 mm 0.00 in0.0 mm 0.05 in1.3 mm
09:00 AM 68.9°F20.5°C 55.8°F13.2°C 63% 6.0 mph S9.7 kmh S 12.9 mph20.8 kmh 30.12 in1020.0 mb 0.00 in0.0 mm 0.00 in0.0 mm 0.05 in1.3 mm
09:10 AM 69.3°F20.7°C 57.4°F14.1°C 66% 5.2 mph S8.4 kmh S 14.0 mph22.5 kmh 30.12 in1020.0 mb 0.00 in0.0 mm 0.00 in0.0 mm 0.05 in1.3 mm
09:20 AM 69.3°F20.7°C 55.7°F13.2°C 62% 6.7 mph S10.8 kmh S 14.0 mph22.5 kmh 30.12 in1020.0 mb 0.00 in0.0 mm 0.00 in0.0 mm 0.05 in1.3 mm
09:30 AM 69.6°F20.9°C 56.5°F13.6°C 63% 4.8 mph S7.7 kmh S 15.4 mph24.8 kmh 30.09 in1019.0 mb 0.00 in0.0 mm 0.00 in0.0 mm 0.05 in1.3 mm
09:40 AM 69.4°F20.8°C 55.4°F13.0°C 61% 7.1 mph S11.4 kmh S 17.5 mph28.2 kmh 30.09 in1019.0 mb 0.00 in0.0 mm 0.00 in0.0 mm 0.05 in1.3 mm
09:50 AM 69.8°F21.0°C 56.2°F13.4°C 62% 3.6 mph S5.8 kmh S 11.8 mph19.0 kmh 30.12 in1020.0 mb 0.00 in0.0 mm 0.00 in0.0 mm 0.05 in1.3 mm
10:00 AM 70.0°F21.1°C 57.2°F14.0°C 64% 4.3 mph S6.9 kmh S 9.3 mph15.0 kmh 30.12 in1020.0 mb 0.00 in0.0 mm 0.00 in0.0 mm 0.05 in1.3 mm
10:10 AM 70.0°F21.1°C 56.4°F13.6°C 62% 6.9 mph SSW11.1 kmh SSW 13.6 mph21.9 kmh 30.12 in1020.0 mb 0.00 in0.0 mm 0.00 in0.0 mm 0.05 in1.3 mm
10:20 AM 70.2°F21.2°C 57.0°F13.9°C 63% 5.4 mph SSW8.7 kmh SSW 13.6 mph21.9 kmh 30.12 in1020.0 mb 0.00 in0.0 mm 0.00 in0.0 mm 0.05 in1.3 mm
10:30 AM 70.5°F21.4°C 56.9°F13.8°C 62% 4.2 mph S6.8 kmh S 15.0 mph24.1 kmh 30.12 in1020.0 mb 0.00 in0.0 mm 0.00 in0.0 mm 0.05 in1.3 mm
10:40 AM 70.7°F21.5°C 57.5°F14.2°C 63% 4.1 mph SSW6.6 kmh SSW 10.0 mph16.1 kmh 30.12 in1020.0 mb 0.00 in0.0 mm 0.00 in0.0 mm 0.05 in1.3 mm
10:50 AM 70.7°F21.5°C 57.0°F13.9°C 62% 3.9 mph SW6.3 kmh SW 12.2 mph19.6 kmh 30.12 in1020.0 mb 0.00 in0.0 mm 0.00 in0.0 mm 0.05 in1.3 mm
11:00 AM 70.9°F21.6°C 57.2°F14.0°C 62% 3.0 mph S4.8 kmh S 9.3 mph15.0 kmh 30.12 in1020.0 mb 0.00 in0.0 mm 0.00 in0.0 mm 0.05 in1.3 mm
11:10 AM 71.1°F21.7°C 57.8°F14.3°C 63% 2.0 mph S3.2 kmh S 6.8 mph10.9 kmh 30.12 in1020.0 mb 0.00 in0.0 mm 0.00 in0.0 mm 0.05 in1.3 mm
11:20 AM 70.9°F21.6°C 55.8°F13.2°C 59% 4.6 mph SSW7.4 kmh SSW 10.0 mph16.1 kmh 30.12 in1020.0 mb 0.00 in0.0 mm 0.00 in0.0 mm 0.05 in1.3 mm
11:30 AM 70.9°F21.6°C 56.8°F13.8°C 61% 3.8 mph S6.1 kmh S 9.3 mph15.0 kmh 30.12 in1020.0 mb 0.00 in0.0 mm 0.00 in0.0 mm 0.05 in1.3 mm
11:40 AM 71.1°F21.7°C 57.4°F14.1°C 62% 4.1 mph SW6.6 kmh SW 10.0 mph16.1 kmh 30.12 in1020.0 mb 0.00 in0.0 mm 0.00 in0.0 mm 0.05 in1.3 mm
11:50 AM 71.2°F21.8°C 58.4°F14.7°C 64% 3.2 mph SSW5.1 kmh SSW 10.4 mph16.7 kmh 30.12 in1020.0 mb 0.00 in0.0 mm 0.00 in0.0 mm 0.05 in1.3 mm
12:00 PM 71.4°F21.9°C 58.2°F14.6°C 63% 3.2 mph SSW5.1 kmh SSW 10.0 mph16.1 kmh 30.12 in1020.0 mb 0.00 in0.0 mm 0.00 in0.0 mm 0.05 in1.3 mm
12:10 PM 71.6°F22.0°C 57.4°F14.1°C 61% 3.3 mph S5.3 kmh S 8.9 mph14.3 kmh 30.12 in1020.0 mb 0.00 in0.0 mm 0.00 in0.0 mm 0.05 in1.3 mm
12:20 PM 71.8°F22.1°C 55.7°F13.2°C 57% 4.5 mph SSW7.2 kmh SSW 11.5 mph18.5 kmh 30.15 in1021.0 mb 0.00 in0.0 mm 0.00 in0.0 mm 0.05 in1.3 mm
12:30 PM 72.3°F22.4°C 55.2°F12.9°C 55% 4.5 mph S7.2 kmh S 12.2 mph19.6 kmh 30.12 in1020.0 mb 0.00 in0.0 mm 0.00 in0.0 mm 0.05 in1.3 mm
12:40 PM 72.7°F22.6°C 55.1°F12.8°C 54% 4.8 mph S7.7 kmh S 16.5 mph26.6 kmh 30.12 in1020.0 mb 0.00 in0.0 mm 0.00 in0.0 mm 0.05 in1.3 mm
12:50 PM 73.4°F23.0°C 55.7°F13.2°C 54% 6.5 mph S10.5 kmh S 14.0 mph22.5 kmh 30.15 in1021.0 mb 0.00 in0.0 mm 0.00 in0.0 mm 0.05 in1.3 mm
01:00 PM 73.2°F22.9°C 53.5°F11.9°C 50% 5.0 mph S8.0 kmh S 11.8 mph19.0 kmh 30.12 in1020.0 mb 0.00 in0.0 mm 0.00 in0.0 mm 0.05 in1.3 mm
01:10 PM 73.0°F22.8°C 54.9°F12.7°C 53% 5.3 mph S8.5 kmh S 11.8 mph19.0 kmh 30.12 in1020.0 mb 0.00 in0.0 mm 0.00 in0.0 mm 0.05 in1.3 mm
01:20 PM 73.4°F23.0°C 54.7°F12.6°C 52% 4.9 mph S7.9 kmh S 12.2 mph19.6 kmh 30.15 in1021.0 mb 0.00 in0.0 mm 0.00 in0.0 mm 0.05 in1.3 mm
01:30 PM 73.8°F23.2°C 53.4°F11.9°C 49% 4.6 mph S7.4 kmh S 12.5 mph20.1 kmh 30.15 in1021.0 mb 0.00 in0.0 mm 0.00 in0.0 mm 0.05 in1.3 mm
01:40 PM 73.9°F23.3°C 54.7°F12.6°C 51% 3.8 mph S6.1 kmh S 10.4 mph16.7 kmh 30.15 in1021.0 mb 0.00 in0.0 mm 0.00 in0.0 mm 0.05 in1.3 mm
01:50 PM 73.8°F23.2°C 53.4°F11.9°C 49% 6.1 mph SW9.8 kmh SW 13.6 mph21.9 kmh 30.15 in1021.0 mb 0.00 in0.0 mm 0.00 in0.0 mm 0.05 in1.3 mm
02:00 PM 73.8°F23.2°C 54.0°F12.2°C 50% 5.5 mph S8.9 kmh S 11.8 mph19.0 kmh 30.15 in1021.0 mb 0.00 in0.0 mm 0.00 in0.0 mm 0.05 in1.3 mm
02:10 PM 74.1°F23.4°C 54.8°F12.7°C 51% 6.1 mph SW9.8 kmh SW 12.5 mph20.1 kmh 30.15 in1021.0 mb 0.00 in0.0 mm 0.00 in0.0 mm 0.05 in1.3 mm
02:20 PM 74.3°F23.5°C 55.5°F13.1°C 52% 2.8 mph S4.5 kmh S 8.6 mph13.8 kmh 30.15 in1021.0 mb 0.00 in0.0 mm 0.00 in0.0 mm 0.05 in1.3 mm
02:30 PM 74.7°F23.7°C 55.3°F12.9°C 51% 3.8 mph SSW6.1 kmh SSW 9.7 mph15.6 kmh 30.15 in1021.0 mb 0.00 in0.0 mm 0.00 in0.0 mm 0.05 in1.3 mm
02:40 PM 74.8°F23.8°C 56.0°F13.3°C 52% 3.9 mph S6.3 kmh S 8.9 mph14.3 kmh 30.15 in1021.0 mb 0.00 in0.0 mm 0.00 in0.0 mm 0.05 in1.3 mm
02:50 PM 74.7°F23.7°C 53.7°F12.1°C 48% 4.7 mph SW7.6 kmh SW 13.6 mph21.9 kmh 30.12 in1020.0 mb 0.00 in0.0 mm 0.00 in0.0 mm 0.05 in1.3 mm
03:00 PM 75.0°F23.9°C 55.7°F13.2°C 51% 3.0 mph S4.8 kmh S 7.9 mph12.7 kmh 30.15 in1021.0 mb 0.00 in0.0 mm 0.00 in0.0 mm 0.05 in1.3 mm
03:10 PM 75.2°F24.0°C 54.7°F12.6°C 49% 3.4 mph SSW5.5 kmh SSW 8.9 mph14.3 kmh 30.15 in1021.0 mb 0.00 in0.0 mm 0.00 in0.0 mm 0.05 in1.3 mm
03:20 PM 75.2°F24.0°C 54.2°F12.3°C 48% 3.5 mph SE5.6 kmh SE 10.0 mph16.1 kmh 30.15 in1021.0 mb 0.00 in0.0 mm 0.00 in0.0 mm 0.05 in1.3 mm
03:30 PM 75.2°F24.0°C 54.2°F12.3°C 48% 3.0 mph S4.8 kmh S 8.9 mph14.3 kmh 30.15 in1021.0 mb 0.00 in0.0 mm 0.00 in0.0 mm 0.05 in1.3 mm
03:40 PM 75.6°F24.2°C 53.9°F12.2°C 47% 3.1 mph SW5.0 kmh SW 8.6 mph13.8 kmh 30.15 in1021.0 mb 0.00 in0.0 mm 0.00 in0.0 mm 0.05 in1.3 mm
03:50 PM 75.9°F24.4°C 54.2°F12.3°C 47% 2.2 mph SSE3.5 kmh SSE 7.9 mph12.7 kmh 30.12 in1020.0 mb 0.00 in0.0 mm 0.00 in0.0 mm 0.05 in1.3 mm
04:00 PM 75.7°F24.3°C 52.9°F11.6°C 45% 3.7 mph S6.0 kmh S 8.9 mph14.3 kmh 30.12 in1020.0 mb 0.00 in0.0 mm 0.00 in0.0 mm 0.05 in1.3 mm
04:10 PM 74.7°F23.7°C 52.5°F11.4°C 46% 2.8 mph S4.5 kmh S 9.3 mph15.0 kmh 30.12 in1020.0 mb 0.00 in0.0 mm 0.00 in0.0 mm 0.05 in1.3 mm
04:20 PM 73.9°F23.3°C 51.8°F11.0°C 46% 2.4 mph S3.9 kmh S 12.2 mph19.6 kmh 30.12 in1020.0 mb 0.00 in0.0 mm 0.00 in0.0 mm 0.05 in1.3 mm
04:30 PM 74.3°F23.5°C 52.8°F11.6°C 47% 2.4 mph S3.9 kmh S 5.7 mph9.2 kmh 30.12 in1020.0 mb 0.00 in0.0 mm 0.00 in0.0 mm 0.05 in1.3 mm
04:40 PM 73.8°F23.2°C 53.4°F11.9°C 49% 1.4 mph S2.3 kmh S 6.4 mph10.3 kmh 30.12 in1020.0 mb 0.00 in0.0 mm 0.00 in0.0 mm 0.05 in1.3 mm
04:50 PM 73.4°F23.0°C 53.1°F11.7°C 49% 1.2 mph S1.9 kmh S 6.1 mph9.8 kmh 30.09 in1019.0 mb 0.00 in0.0 mm 0.00 in0.0 mm 0.05 in1.3 mm
05:00 PM 73.0°F22.8°C 54.4°F12.4°C 52% 1.1 mph SE1.8 kmh SE 4.7 mph7.6 kmh 30.12 in1020.0 mb 0.00 in0.0 mm 0.00 in0.0 mm 0.05 in1.3 mm
05:10 PM 73.2°F22.9°C 54.5°F12.5°C 52% 1.5 mph ESE2.4 kmh ESE 6.8 mph10.9 kmh 30.12 in1020.0 mb 0.00 in0.0 mm 0.00 in0.0 mm 0.05 in1.3 mm
05:20 PM 72.3°F22.4°C 54.2°F12.3°C 53% 0.5 mph SE0.8 kmh SE 5.4 mph8.7 kmh 30.12 in1020.0 mb 0.00 in0.0 mm 0.00 in0.0 mm 0.05 in1.3 mm
05:30 PM 71.8°F22.1°C 53.7°F12.1°C 53% 0.4 mph S0.6 kmh S 5.4 mph8.7 kmh 30.09 in1019.0 mb 0.00 in0.0 mm 0.00 in0.0 mm 0.05 in1.3 mm
05:40 PM 71.2°F21.8°C 54.7°F12.6°C 56% Calm Calm -- 30.09 in1019.0 mb 0.00 in0.0 mm 0.00 in0.0 mm 0.05 in1.3 mm
05:50 PM 71.2°F21.8°C 56.2°F13.4°C 59% Calm Calm -- 30.12 in1020.0 mb 0.00 in0.0 mm 0.00 in0.0 mm 0.05 in1.3 mm
06:00 PM 71.1°F21.7°C 55.5°F13.1°C 58% Calm Calm -- 30.09 in1019.0 mb 0.00 in0.0 mm 0.00 in0.0 mm 0.05 in1.3 mm
06:10 PM 70.9°F21.6°C 56.8°F13.8°C 61% Calm Calm -- 30.09 in1019.0 mb 0.00 in0.0 mm 0.00 in0.0 mm 0.05 in1.3 mm
06:20 PM 70.7°F21.5°C 57.0°F13.9°C 62% Calm Calm -- 30.15 in1021.0 mb 0.00 in0.0 mm 0.00 in0.0 mm 0.05 in1.3 mm
06:30 PM 70.2°F21.2°C 58.3°F14.6°C 66% Calm Calm -- 30.12 in1020.0 mb 0.00 in0.0 mm 0.00 in0.0 mm 0.05 in1.3 mm
06:40 PM 69.8°F21.0°C 58.8°F14.9°C 68% Calm Calm -- 30.12 in1020.0 mb 0.00 in0.0 mm 0.00 in0.0 mm 0.05 in1.3 mm
06:50 PM 69.1°F20.6°C 58.1°F14.5°C 68% Calm Calm -- 30.12 in1020.0 mb 0.00 in0.0 mm 0.00 in0.0 mm 0.05 in1.3 mm
07:00 PM 68.4°F20.2°C 58.2°F14.6°C 70% Calm Calm -- 30.09 in1019.0 mb 0.00 in0.0 mm 0.00 in0.0 mm 0.05 in1.3 mm
07:10 PM 68.2°F20.1°C 58.0°F14.4°C 70% Calm Calm -- 30.09 in1019.0 mb 0.00 in0.0 mm 0.00 in0.0 mm 0.05 in1.3 mm
07:20 PM 68.0°F20.0°C 57.0°F13.9°C 68% Calm Calm -- 30.12 in1020.0 mb 0.00 in0.0 mm 0.00 in0.0 mm 0.05 in1.3 mm
07:30 PM 67.6°F19.8°C 57.1°F13.9°C 69% Calm Calm -- 30.12 in1020.0 mb 0.00 in0.0 mm 0.00 in0.0 mm 0.05 in1.3 mm
07:40 PM 67.5°F19.7°C 56.9°F13.8°C 69% Calm Calm -- 30.12 in1020.0 mb 0.00 in0.0 mm 0.00 in0.0 mm 0.05 in1.3 mm
07:50 PM 67.1°F19.5°C 57.0°F13.9°C 70% Calm Calm -- 30.12 in1020.0 mb 0.00 in0.0 mm 0.00 in0.0 mm 0.05 in1.3 mm
08:00 PM 66.7°F19.3°C 57.0°F13.9°C 71% 1.4 mph WSW2.3 kmh WSW 5.4 mph8.7 kmh 30.12 in1020.0 mb 0.00 in0.0 mm 0.00 in0.0 mm 0.05 in1.3 mm
08:10 PM 66.4°F19.1°C 56.7°F13.7°C 71% 0.3 mph S0.5 kmh S 2.5 mph4.0 kmh 30.12 in1020.0 mb 0.00 in0.0 mm 0.00 in0.0 mm 0.05 in1.3 mm
08:20 PM 65.8°F18.8°C 56.9°F13.8°C 73% 0.7 mph S1.1 kmh S 3.6 mph5.8 kmh 30.12 in1020.0 mb 0.00 in0.0 mm 0.00 in0.0 mm 0.05 in1.3 mm
08:30 PM 65.5°F18.6°C 56.2°F13.4°C 72% 2.9 mph WSW4.7 kmh WSW 5.7 mph9.2 kmh 30.12 in1020.0 mb 0.00 in0.0 mm 0.00 in0.0 mm 0.05 in1.3 mm
08:40 PM 65.3°F18.5°C 56.4°F13.6°C 73% 2.9 mph W4.7 kmh W 5.7 mph9.2 kmh 30.12 in1020.0 mb 0.00 in0.0 mm 0.00 in0.0 mm 0.05 in1.3 mm
08:50 PM 64.9°F18.3°C 56.5°F13.6°C 74% 2.9 mph W4.7 kmh W 7.5 mph12.1 kmh 30.15 in1021.0 mb 0.00 in0.0 mm 0.00 in0.0 mm 0.05 in1.3 mm
09:00 PM 64.6°F18.1°C 56.5°F13.6°C 75% 1.2 mph WNW1.9 kmh WNW 3.2 mph5.1 kmh 30.15 in1021.0 mb 0.00 in0.0 mm 0.00 in0.0 mm 0.05 in1.3 mm
09:10 PM 64.2°F17.9°C 56.1°F13.4°C 75% Calm Calm -- 30.15 in1021.0 mb 0.00 in0.0 mm 0.00 in0.0 mm 0.05 in1.3 mm
09:20 PM 63.7°F17.6°C 56.0°F13.3°C 76% Calm Calm -- 30.15 in1021.0 mb 0.00 in0.0 mm 0.00 in0.0 mm 0.05 in1.3 mm
09:30 PM 62.8°F17.1°C 55.8°F13.2°C 78% Calm Calm -- 30.15 in1021.0 mb 0.00 in0.0 mm 0.00 in0.0 mm 0.05 in1.3 mm
09:40 PM 62.2°F16.8°C 56.3°F13.5°C 81% Calm Calm -- 30.15 in1021.0 mb 0.00 in0.0 mm 0.00 in0.0 mm 0.05 in1.3 mm
09:50 PM 61.9°F16.6°C 56.3°F13.5°C 82% Calm Calm -- 30.12 in1020.0 mb 0.00 in0.0 mm 0.00 in0.0 mm 0.05 in1.3 mm
10:00 PM 61.2°F16.2°C 55.6°F13.1°C 82% Calm Calm -- 30.15 in1021.0 mb 0.00 in0.0 mm 0.00 in0.0 mm 0.05 in1.3 mm
10:10 PM 61.0°F16.1°C 55.8°F13.2°C 83% Calm Calm -- 30.15 in1021.0 mb 0.00 in0.0 mm 0.00 in0.0 mm 0.05 in1.3 mm
10:20 PM 61.0°F16.1°C 55.8°F13.2°C 83% 0.1 mph SE0.2 kmh SE 1.4 mph2.3 kmh 30.12 in1020.0 mb 0.00 in0.0 mm 0.00 in0.0 mm 0.05 in1.3 mm
10:30 PM 60.8°F16.0°C 55.9°F13.3°C 84% Calm Calm -- 30.12 in1020.0 mb 0.00 in0.0 mm 0.00 in0.0 mm 0.05 in1.3 mm
10:40 PM 60.8°F16.0°C 56.3°F13.5°C 85% Calm Calm -- 30.12 in1020.0 mb 0.00 in0.0 mm 0.00 in0.0 mm 0.05 in1.3 mm
10:50 PM 60.8°F16.0°C 56.6°F13.7°C 86% Calm Calm -- 30.09 in1019.0 mb 0.00 in0.0 mm 0.00 in0.0 mm 0.05 in1.3 mm
11:00 PM 60.8°F16.0°C 56.9°F13.8°C 87% 1.6 mph SE2.6 kmh SE 6.4 mph10.3 kmh 30.12 in1020.0 mb 0.00 in0.0 mm 0.00 in0.0 mm 0.05 in1.3 mm
11:10 PM 60.8°F16.0°C 57.2°F14.0°C 88% Calm Calm -- 30.12 in1020.0 mb 0.00 in0.0 mm 0.00 in0.0 mm 0.05 in1.3 mm
11:20 PM 60.6°F15.9°C 56.7°F13.7°C 87% Calm Calm -- 30.12 in1020.0 mb 0.00 in0.0 mm 0.00 in0.0 mm 0.05 in1.3 mm
11:30 PM 60.3°F15.7°C 56.4°F13.6°C 87% 0.1 mph SE0.2 kmh SE 1.8 mph2.9 kmh 30.09 in1019.0 mb 0.00 in0.0 mm 0.00 in0.0 mm 0.05 in1.3 mm
11:40 PM 59.7°F15.4°C 55.8°F13.2°C 87% Calm Calm -- 30.09 in1019.0 mb 0.00 in0.0 mm 0.00 in0.0 mm 0.05 in1.3 mm
11:50 PM 59.9°F15.5°C 56.3°F13.5°C 88% 0.3 mph E0.5 kmh E 4.3 mph6.9 kmh 30.12 in1020.0 mb 0.00 in0.0 mm 0.00 in0.0 mm 0.05 in1.3 mm